sensor_id;sensor_type;location;lat;lon;timestamp;P1;durP1;ratioP1;P2;durP2;ratioP2
4208;SDS011;36320;48.860;2.380;2023-02-28T00:00:01;16.30;;;1.77;;
4208;SDS011;36320;48.860;2.380;2023-02-28T00:02:34;5.55;;;1.42;;
4208;SDS011;36320;48.860;2.380;2023-02-28T00:05:00;5.90;;;1.50;;
4208;SDS011;36320;48.860;2.380;2023-02-28T00:07:28;5.88;;;1.60;;
4208;SDS011;36320;48.860;2.380;2023-02-28T00:09:54;10.60;;;1.73;;
4208;SDS011;36320;48.860;2.380;2023-02-28T00:12:20;6.20;;;1.60;;
4208;SDS011;36320;48.860;2.380;2023-02-28T00:14:46;5.90;;;1.42;;
4208;SDS011;36320;48.860;2.380;2023-02-28T00:17:12;5.40;;;1.50;;
4208;SDS011;36320;48.860;2.380;2023-02-28T00:19:38;6.97;;;1.50;;
4208;SDS011;36320;48.860;2.380;2023-02-28T00:22:04;6.72;;;1.50;;
4208;SDS011;36320;48.860;2.380;2023-02-28T00:24:30;6.00;;;1.70;;
4208;SDS011;36320;48.860;2.380;2023-02-28T00:26:57;6.00;;;1.58;;
4208;SDS011;36320;48.860;2.380;2023-02-28T00:29:22;5.40;;;1.35;;
4208;SDS011;36320;48.860;2.380;2023-02-28T00:31:48;5.82;;;1.40;;
4208;SDS011;36320;48.860;2.380;2023-02-28T00:34:15;6.83;;;1.70;;
4208;SDS011;36320;48.860;2.380;2023-02-28T00:36:41;7.20;;;1.60;;
4208;SDS011;36320;48.860;2.380;2023-02-28T00:39:10;5.95;;;1.50;;
4208;SDS011;36320;48.860;2.380;2023-02-28T00:41:36;6.88;;;1.77;;
4208;SDS011;36320;48.860;2.380;2023-02-28T00:44:02;5.68;;;1.30;;
4208;SDS011;36320;48.860;2.380;2023-02-28T00:46:28;7.70;;;1.80;;
4208;SDS011;36320;48.860;2.380;2023-02-28T00:48:56;9.43;;;1.70;;
4208;SDS011;36320;48.860;2.380;2023-02-28T00:51:22;7.93;;;2.10;;
4208;SDS011;36320;48.860;2.380;2023-02-28T00:53:48;5.90;;;1.60;;
4208;SDS011;36320;48.860;2.380;2023-02-28T00:56:14;5.82;;;1.30;;
4208;SDS011;36320;48.860;2.380;2023-02-28T00:58:40;6.20;;;1.90;;
4208;SDS011;36320;48.860;2.380;2023-02-28T01:01:06;7.50;;;1.60;;
4208;SDS011;36320;48.860;2.380;2023-02-28T01:03:33;5.85;;;1.70;;
4208;SDS011;36320;48.860;2.380;2023-02-28T01:05:59;6.70;;;1.40;;
4208;SDS011;36320;48.860;2.380;2023-02-28T01:08:25;5.50;;;1.40;;
4208;SDS011;36320;48.860;2.380;2023-02-28T01:10:52;5.75;;;1.42;;
4208;SDS011;36320;48.860;2.380;2023-02-28T01:13:18;8.30;;;1.50;;
4208;SDS011;36320;48.860;2.380;2023-02-28T01:15:49;6.30;;;1.30;;
4208;SDS011;36320;48.860;2.380;2023-02-28T01:18:16;5.40;;;1.38;;
4208;SDS011;36320;48.860;2.380;2023-02-28T01:20:42;5.88;;;1.40;;
4208;SDS011;36320;48.860;2.380;2023-02-28T01:23:09;6.32;;;1.80;;
4208;SDS011;36320;48.860;2.380;2023-02-28T01:25:36;5.45;;;1.27;;
4208;SDS011;36320;48.860;2.380;2023-02-28T01:28:05;7.57;;;1.40;;
4208;SDS011;36320;48.860;2.380;2023-02-28T01:30:32;6.68;;;1.63;;
4208;SDS011;36320;48.860;2.380;2023-02-28T01:33:01;6.65;;;1.60;;
4208;SDS011;36320;48.860;2.380;2023-02-28T01:35:27;6.03;;;1.40;;
4208;SDS011;36320;48.860;2.380;2023-02-28T01:37:53;6.28;;;1.45;;
4208;SDS011;36320;48.860;2.380;2023-02-28T01:40:19;6.18;;;1.42;;
4208;SDS011;36320;48.860;2.380;2023-02-28T01:42:45;6.00;;;1.30;;
4208;SDS011;36320;48.860;2.380;2023-02-28T01:45:30;8.10;;;1.70;;
4208;SDS011;36320;48.860;2.380;2023-02-28T01:48:00;6.88;;;1.40;;
4208;SDS011;36320;48.860;2.380;2023-02-28T01:50:29;5.60;;;1.20;;
4208;SDS011;36320;48.860;2.380;2023-02-28T01:52:56;6.22;;;1.73;;
4208;SDS011;36320;48.860;2.380;2023-02-28T01:55:24;5.50;;;1.40;;
4208;SDS011;36320;48.860;2.380;2023-02-28T01:57:54;6.23;;;1.40;;
4208;SDS011;36320;48.860;2.380;2023-02-28T02:00:23;5.85;;;1.27;;
4208;SDS011;36320;48.860;2.380;2023-02-28T02:02:50;6.60;;;1.90;;
4208;SDS011;36320;48.860;2.380;2023-02-28T02:05:19;6.63;;;1.52;;
4208;SDS011;36320;48.860;2.380;2023-02-28T02:07:46;5.80;;;1.40;;
4208;SDS011;36320;48.860;2.380;2023-02-28T02:10:47;5.40;;;1.40;;
4208;SDS011;36320;48.860;2.380;2023-02-28T02:18:51;10.07;;;1.50;;
4208;SDS011;36320;48.860;2.380;2023-02-28T02:26:15;4.90;;;1.10;;
4208;SDS011;36320;48.860;2.380;2023-02-28T02:29:03;5.90;;;1.42;;
4208;SDS011;36320;48.860;2.380;2023-02-28T02:36:47;5.50;;;1.30;;
4208;SDS011;36320;48.860;2.380;2023-02-28T02:42:02;6.70;;;1.58;;
4208;SDS011;36320;48.860;2.380;2023-02-28T02:47:29;5.20;;;1.20;;
4208;SDS011;36320;48.860;2.380;2023-02-28T02:49:56;5.47;;;1.33;;
4208;SDS011;36320;48.860;2.380;2023-02-28T02:52:34;5.20;;;1.20;;
4208;SDS011;36320;48.860;2.380;2023-02-28T02:55:08;6.30;;;1.27;;
4208;SDS011;36320;48.860;2.380;2023-02-28T02:57:38;5.70;;;1.30;;
4208;SDS011;36320;48.860;2.380;2023-02-28T03:00:06;4.90;;;0.98;;
4208;SDS011;36320;48.860;2.380;2023-02-28T03:02:34;7.10;;;1.40;;
4208;SDS011;36320;48.860;2.380;2023-02-28T03:05:02;5.30;;;1.20;;
4208;SDS011;36320;48.860;2.380;2023-02-28T03:07:30;6.33;;;1.40;;
4208;SDS011;36320;48.860;2.380;2023-02-28T03:09:57;6.82;;;1.50;;
4208;SDS011;36320;48.860;2.380;2023-02-28T03:12:24;5.35;;;1.20;;
4208;SDS011;36320;48.860;2.380;2023-02-28T03:15:00;5.50;;;1.40;;
4208;SDS011;36320;48.860;2.380;2023-02-28T03:25:04;5.00;;;1.20;;
4208;SDS011;36320;48.860;2.380;2023-02-28T03:27:38;5.80;;;1.30;;
4208;SDS011;36320;48.860;2.380;2023-02-28T03:32:55;6.47;;;1.40;;
4208;SDS011;36320;48.860;2.380;2023-02-28T03:35:27;5.55;;;1.38;;
4208;SDS011;36320;48.860;2.380;2023-02-28T03:37:58;6.00;;;1.40;;
4208;SDS011;36320;48.860;2.380;2023-02-28T03:40:27;5.65;;;1.58;;
4208;SDS011;36320;48.860;2.380;2023-02-28T03:42:57;5.80;;;1.40;;
4208;SDS011;36320;48.860;2.380;2023-02-28T03:45:26;7.10;;;1.20;;
4208;SDS011;36320;48.860;2.380;2023-02-28T03:48:02;5.10;;;1.10;;
4208;SDS011;36320;48.860;2.380;2023-02-28T03:50:34;5.20;;;1.20;;
4208;SDS011;36320;48.860;2.380;2023-02-28T03:53:01;5.20;;;1.30;;
4208;SDS011;36320;48.860;2.380;2023-02-28T03:55:30;7.97;;;1.63;;
4208;SDS011;36320;48.860;2.380;2023-02-28T03:58:03;5.63;;;1.60;;
4208;SDS011;36320;48.860;2.380;2023-02-28T04:00:35;5.22;;;1.13;;
4208;SDS011;36320;48.860;2.380;2023-02-28T04:03:04;5.10;;;1.00;;
4208;SDS011;36320;48.860;2.380;2023-02-28T04:05:30;8.23;;;1.50;;
4208;SDS011;36320;48.860;2.380;2023-02-28T04:08:03;5.70;;;1.30;;
4208;SDS011;36320;48.860;2.380;2023-02-28T04:10:30;6.13;;;1.13;;
4208;SDS011;36320;48.860;2.380;2023-02-28T04:12:56;5.03;;;1.10;;
4208;SDS011;36320;48.860;2.380;2023-02-28T04:15:22;5.60;;;1.50;;
4208;SDS011;36320;48.860;2.380;2023-02-28T04:17:49;5.30;;;1.10;;
4208;SDS011;36320;48.860;2.380;2023-02-28T04:20:16;7.50;;;1.30;;
4208;SDS011;36320;48.860;2.380;2023-02-28T04:22:42;5.70;;;1.30;;
4208;SDS011;36320;48.860;2.380;2023-02-28T04:25:08;5.60;;;1.40;;
4208;SDS011;36320;48.860;2.380;2023-02-28T04:27:34;5.40;;;1.40;;
4208;SDS011;36320;48.860;2.380;2023-02-28T04:30:00;5.00;;;1.10;;
4208;SDS011;36320;48.860;2.380;2023-02-28T04:32:26;6.35;;;1.33;;
4208;SDS011;36320;48.860;2.380;2023-02-28T04:34:52;5.38;;;1.30;;
4208;SDS011;36320;48.860;2.380;2023-02-28T04:37:18;6.60;;;1.17;;
4208;SDS011;36320;48.860;2.380;2023-02-28T04:39:44;5.03;;;1.20;;
4208;SDS011;36320;48.860;2.380;2023-02-28T04:42:10;5.85;;;1.30;;
4208;SDS011;36320;48.860;2.380;2023-02-28T04:44:37;6.80;;;1.25;;
4208;SDS011;36320;48.860;2.380;2023-02-28T04:47:05;7.85;;;2.03;;
4208;SDS011;36320;48.860;2.380;2023-02-28T04:49:31;11.73;;;2.13;;
4208;SDS011;36320;48.860;2.380;2023-02-28T04:51:57;5.00;;;1.20;;
4208;SDS011;36320;48.860;2.380;2023-02-28T04:54:23;6.68;;;1.58;;
4208;SDS011;36320;48.860;2.380;2023-02-28T04:56:49;6.47;;;1.63;;
4208;SDS011;36320;48.860;2.380;2023-02-28T04:59:15;6.43;;;1.50;;
4208;SDS011;36320;48.860;2.380;2023-02-28T05:01:44;6.38;;;1.45;;
4208;SDS011;36320;48.860;2.380;2023-02-28T05:04:11;6.35;;;1.20;;
4208;SDS011;36320;48.860;2.380;2023-02-28T05:06:37;6.27;;;1.53;;
4208;SDS011;36320;48.860;2.380;2023-02-28T05:09:06;5.32;;;1.15;;
4208;SDS011;36320;48.860;2.380;2023-02-28T05:11:33;5.97;;;1.55;;
4208;SDS011;36320;48.860;2.380;2023-02-28T05:14:09;5.10;;;1.02;;
4208;SDS011;36320;48.860;2.380;2023-02-28T05:16:35;7.77;;;1.30;;
4208;SDS011;36320;48.860;2.380;2023-02-28T05:19:04;7.53;;;1.90;;
4208;SDS011;36320;48.860;2.380;2023-02-28T05:21:50;7.30;;;1.30;;
4208;SDS011;36320;48.860;2.380;2023-02-28T05:24:17;5.63;;;1.30;;
4208;SDS011;36320;48.860;2.380;2023-02-28T05:26:48;5.80;;;1.40;;
4208;SDS011;36320;48.860;2.380;2023-02-28T05:29:16;5.95;;;1.15;;
4208;SDS011;36320;48.860;2.380;2023-02-28T05:31:42;5.80;;;1.50;;
4208;SDS011;36320;48.860;2.380;2023-02-28T05:34:08;5.72;;;1.40;;
4208;SDS011;36320;48.860;2.380;2023-02-28T05:36:36;6.10;;;1.13;;
4208;SDS011;36320;48.860;2.380;2023-02-28T05:39:03;6.45;;;1.58;;
4208;SDS011;36320;48.860;2.380;2023-02-28T05:41:29;7.10;;;1.40;;
4208;SDS011;36320;48.860;2.380;2023-02-28T05:43:55;7.80;;;1.80;;
4208;SDS011;36320;48.860;2.380;2023-02-28T05:46:22;11.50;;;1.50;;
4208;SDS011;36320;48.860;2.380;2023-02-28T05:48:48;6.50;;;1.70;;
4208;SDS011;36320;48.860;2.380;2023-02-28T05:51:14;7.40;;;1.33;;
4208;SDS011;36320;48.860;2.380;2023-02-28T05:53:41;9.10;;;2.60;;
4208;SDS011;36320;48.860;2.380;2023-02-28T05:56:07;6.35;;;1.60;;
4208;SDS011;36320;48.860;2.380;2023-02-28T05:58:33;5.30;;;1.30;;
4208;SDS011;36320;48.860;2.380;2023-02-28T06:01:00;5.70;;;1.60;;
4208;SDS011;36320;48.860;2.380;2023-02-28T06:03:26;6.70;;;2.03;;
4208;SDS011;36320;48.860;2.380;2023-02-28T06:05:52;5.50;;;1.40;;
4208;SDS011;36320;48.860;2.380;2023-02-28T06:08:19;7.22;;;1.80;;
4208;SDS011;36320;48.860;2.380;2023-02-28T06:10:45;6.10;;;1.30;;
4208;SDS011;36320;48.860;2.380;2023-02-28T06:13:11;6.65;;;1.80;;
4208;SDS011;36320;48.860;2.380;2023-02-28T06:15:37;5.88;;;1.67;;
4208;SDS011;36320;48.860;2.380;2023-02-28T06:18:04;5.50;;;1.60;;
4208;SDS011;36320;48.860;2.380;2023-02-28T06:20:30;5.80;;;1.48;;
4208;SDS011;36320;48.860;2.380;2023-02-28T06:22:56;5.83;;;1.70;;
4208;SDS011;36320;48.860;2.380;2023-02-28T06:25:23;8.80;;;2.10;;
4208;SDS011;36320;48.860;2.380;2023-02-28T06:27:49;14.68;;;1.90;;
4208;SDS011;36320;48.860;2.380;2023-02-28T06:30:16;5.22;;;1.40;;
4208;SDS011;36320;48.860;2.380;2023-02-28T06:32:42;10.45;;;3.40;;
4208;SDS011;36320;48.860;2.380;2023-02-28T06:35:08;10.00;;;3.20;;
4208;SDS011;36320;48.860;2.380;2023-02-28T06:37:33;8.40;;;2.90;;
4208;SDS011;36320;48.860;2.380;2023-02-28T06:40:00;13.20;;;3.10;;
4208;SDS011;36320;48.860;2.380;2023-02-28T06:42:26;11.80;;;4.07;;
4208;SDS011;36320;48.860;2.380;2023-02-28T06:44:56;9.80;;;2.90;;
4208;SDS011;36320;48.860;2.380;2023-02-28T06:47:24;9.43;;;3.00;;
4208;SDS011;36320;48.860;2.380;2023-02-28T06:49:51;10.52;;;2.90;;
4208;SDS011;36320;48.860;2.380;2023-02-28T06:52:17;10.38;;;3.55;;
4208;SDS011;36320;48.860;2.380;2023-02-28T06:54:43;8.20;;;2.90;;
4208;SDS011;36320;48.860;2.380;2023-02-28T06:57:09;9.68;;;3.20;;
4208;SDS011;36320;48.860;2.380;2023-02-28T06:59:34;8.40;;;3.37;;
4208;SDS011;36320;48.860;2.380;2023-02-28T07:02:01;13.65;;;3.22;;
4208;SDS011;36320;48.860;2.380;2023-02-28T07:04:27;11.38;;;3.35;;
4208;SDS011;36320;48.860;2.380;2023-02-28T07:06:54;10.20;;;2.90;;
4208;SDS011;36320;48.860;2.380;2023-02-28T07:09:21;13.70;;;4.10;;
4208;SDS011;36320;48.860;2.380;2023-02-28T07:11:48;21.63;;;3.80;;
4208;SDS011;36320;48.860;2.380;2023-02-28T07:14:14;10.88;;;3.20;;
4208;SDS011;36320;48.860;2.380;2023-02-28T07:16:42;15.55;;;4.10;;
4208;SDS011;36320;48.860;2.380;2023-02-28T07:19:09;11.67;;;3.60;;
4208;SDS011;36320;48.860;2.380;2023-02-28T07:21:35;11.23;;;3.88;;
4208;SDS011;36320;48.860;2.380;2023-02-28T07:24:02;15.97;;;3.60;;
4208;SDS011;36320;48.860;2.380;2023-02-28T07:26:29;11.80;;;3.83;;
4208;SDS011;36320;48.860;2.380;2023-02-28T07:28:55;10.00;;;3.50;;
4208;SDS011;36320;48.860;2.380;2023-02-28T07:31:21;10.03;;;3.43;;
4208;SDS011;36320;48.860;2.380;2023-02-28T07:33:47;10.90;;;3.10;;
4208;SDS011;36320;48.860;2.380;2023-02-28T07:36:14;13.00;;;3.70;;
4208;SDS011;36320;48.860;2.380;2023-02-28T07:38:42;11.80;;;3.92;;
4208;SDS011;36320;48.860;2.380;2023-02-28T07:41:09;12.70;;;3.50;;
4208;SDS011;36320;48.860;2.380;2023-02-28T07:43:35;12.30;;;3.90;;
4208;SDS011;36320;48.860;2.380;2023-02-28T07:46:08;9.68;;;3.83;;
4208;SDS011;36320;48.860;2.380;2023-02-28T07:48:36;13.15;;;3.70;;
4208;SDS011;36320;48.860;2.380;2023-02-28T07:51:05;11.30;;;3.90;;
4208;SDS011;36320;48.860;2.380;2023-02-28T07:53:31;10.10;;;3.30;;
4208;SDS011;36320;48.860;2.380;2023-02-28T07:55:57;10.30;;;3.50;;
4208;SDS011;36320;48.860;2.380;2023-02-28T07:58:25;12.75;;;3.20;;
4208;SDS011;36320;48.860;2.380;2023-02-28T08:00:53;12.60;;;4.20;;
4208;SDS011;36320;48.860;2.380;2023-02-28T08:03:20;12.70;;;4.00;;
4208;SDS011;36320;48.860;2.380;2023-02-28T08:05:47;12.57;;;4.50;;
4208;SDS011;36320;48.860;2.380;2023-02-28T08:08:15;11.32;;;3.40;;
4208;SDS011;36320;48.860;2.380;2023-02-28T08:10:41;16.25;;;3.90;;
4208;SDS011;36320;48.860;2.380;2023-02-28T08:13:09;23.20;;;3.80;;
4208;SDS011;36320;48.860;2.380;2023-02-28T08:15:35;16.70;;;3.90;;
4208;SDS011;36320;48.860;2.380;2023-02-28T08:18:01;9.70;;;3.50;;
4208;SDS011;36320;48.860;2.380;2023-02-28T08:20:28;10.75;;;3.65;;
4208;SDS011;36320;48.860;2.380;2023-02-28T08:22:54;13.27;;;4.10;;
4208;SDS011;36320;48.860;2.380;2023-02-28T08:25:20;11.13;;;3.90;;
4208;SDS011;36320;48.860;2.380;2023-02-28T08:27:46;12.77;;;3.92;;
4208;SDS011;36320;48.860;2.380;2023-02-28T08:30:12;9.63;;;3.67;;
4208;SDS011;36320;48.860;2.380;2023-02-28T08:32:39;15.10;;;4.10;;
4208;SDS011;36320;48.860;2.380;2023-02-28T08:35:07;11.13;;;4.00;;
4208;SDS011;36320;48.860;2.380;2023-02-28T08:37:34;14.20;;;3.92;;
4208;SDS011;36320;48.860;2.380;2023-02-28T08:40:00;9.43;;;3.20;;
4208;SDS011;36320;48.860;2.380;2023-02-28T08:42:29;10.20;;;3.75;;
4208;SDS011;36320;48.860;2.380;2023-02-28T08:44:59;10.50;;;3.00;;
4208;SDS011;36320;48.860;2.380;2023-02-28T08:47:25;11.55;;;4.13;;
4208;SDS011;36320;48.860;2.380;2023-02-28T08:49:51;9.77;;;3.70;;
4208;SDS011;36320;48.860;2.380;2023-02-28T08:52:17;10.87;;;3.70;;
4208;SDS011;36320;48.860;2.380;2023-02-28T08:54:43;14.35;;;3.40;;
4208;SDS011;36320;48.860;2.380;2023-02-28T08:57:08;12.30;;;3.57;;
4208;SDS011;36320;48.860;2.380;2023-02-28T08:59:37;10.80;;;3.80;;
4208;SDS011;36320;48.860;2.380;2023-02-28T09:02:04;9.70;;;3.40;;
4208;SDS011;36320;48.860;2.380;2023-02-28T09:04:29;13.52;;;3.97;;
4208;SDS011;36320;48.860;2.380;2023-02-28T09:06:56;9.90;;;3.70;;
4208;SDS011;36320;48.860;2.380;2023-02-28T09:09:22;12.52;;;3.80;;
4208;SDS011;36320;48.860;2.380;2023-02-28T09:11:48;10.40;;;3.80;;
4208;SDS011;36320;48.860;2.380;2023-02-28T09:14:13;11.60;;;3.70;;
4208;SDS011;36320;48.860;2.380;2023-02-28T09:16:39;9.48;;;3.47;;
4208;SDS011;36320;48.860;2.380;2023-02-28T09:19:05;8.70;;;3.30;;
4208;SDS011;36320;48.860;2.380;2023-02-28T09:21:30;9.60;;;3.45;;
4208;SDS011;36320;48.860;2.380;2023-02-28T09:23:56;8.23;;;2.80;;
4208;SDS011;36320;48.860;2.380;2023-02-28T09:26:24;9.38;;;3.38;;
4208;SDS011;36320;48.860;2.380;2023-02-28T09:28:52;12.73;;;3.88;;
4208;SDS011;36320;48.860;2.380;2023-02-28T09:31:23;10.98;;;3.85;;
4208;SDS011;36320;48.860;2.380;2023-02-28T09:33:52;9.48;;;2.58;;
4208;SDS011;36320;48.860;2.380;2023-02-28T09:36:24;11.57;;;3.58;;
4208;SDS011;36320;48.860;2.380;2023-02-28T09:38:51;10.52;;;2.83;;
4208;SDS011;36320;48.860;2.380;2023-02-28T09:42:00;10.30;;;3.70;;
4208;SDS011;36320;48.860;2.380;2023-02-28T09:44:31;8.77;;;3.15;;
4208;SDS011;36320;48.860;2.380;2023-02-28T09:47:16;14.48;;;3.60;;
4208;SDS011;36320;48.860;2.380;2023-02-28T09:50:03;15.32;;;4.00;;
4208;SDS011;36320;48.860;2.380;2023-02-28T09:52:54;9.13;;;3.15;;
4208;SDS011;36320;48.860;2.380;2023-02-28T09:58:02;11.52;;;3.85;;
4208;SDS011;36320;48.860;2.380;2023-02-28T10:00:33;9.20;;;3.03;;
4208;SDS011;36320;48.860;2.380;2023-02-28T10:11:45;8.43;;;2.70;;
4208;SDS011;36320;48.860;2.380;2023-02-28T10:14:18;8.27;;;3.00;;
4208;SDS011;36320;48.860;2.380;2023-02-28T10:16:54;10.10;;;3.08;;
4208;SDS011;36320;48.860;2.380;2023-02-28T10:22:38;7.95;;;2.75;;
4208;SDS011;36320;48.860;2.380;2023-02-28T10:25:19;8.18;;;2.60;;
4208;SDS011;36320;48.860;2.380;2023-02-28T10:27:49;8.30;;;2.70;;
4208;SDS011;36320;48.860;2.380;2023-02-28T10:30:19;11.45;;;2.85;;
4208;SDS011;36320;48.860;2.380;2023-02-28T10:32:49;9.97;;;2.67;;
4208;SDS011;36320;48.860;2.380;2023-02-28T10:35:25;8.57;;;2.70;;
4208;SDS011;36320;48.860;2.380;2023-02-28T10:37:56;7.80;;;2.53;;
4208;SDS011;36320;48.860;2.380;2023-02-28T10:40:29;10.32;;;2.70;;
4208;SDS011;36320;48.860;2.380;2023-02-28T10:43:17;8.27;;;2.30;;
4208;SDS011;36320;48.860;2.380;2023-02-28T10:45:53;8.90;;;2.60;;
4208;SDS011;36320;48.860;2.380;2023-02-28T10:48:34;9.27;;;3.08;;
4208;SDS011;36320;48.860;2.380;2023-02-28T10:51:15;10.90;;;3.00;;
4208;SDS011;36320;48.860;2.380;2023-02-28T10:53:53;7.25;;;2.30;;
4208;SDS011;36320;48.860;2.380;2023-02-28T10:56:24;8.60;;;2.45;;
4208;SDS011;36320;48.860;2.380;2023-02-28T10:59:05;8.40;;;2.45;;
4208;SDS011;36320;48.860;2.380;2023-02-28T11:01:56;8.05;;;2.53;;
4208;SDS011;36320;48.860;2.380;2023-02-28T11:04:33;9.13;;;2.70;;
4208;SDS011;36320;48.860;2.380;2023-02-28T11:07:17;7.10;;;2.00;;
4208;SDS011;36320;48.860;2.380;2023-02-28T11:09:46;7.55;;;2.45;;
4208;SDS011;36320;48.860;2.380;2023-02-28T11:12:36;8.90;;;2.63;;
4208;SDS011;36320;48.860;2.380;2023-02-28T11:17:57;10.53;;;2.53;;
4208;SDS011;36320;48.860;2.380;2023-02-28T11:20:44;9.30;;;3.00;;
4208;SDS011;36320;48.860;2.380;2023-02-28T11:23:18;7.50;;;2.20;;
4208;SDS011;36320;48.860;2.380;2023-02-28T11:25:47;9.70;;;2.60;;
4208;SDS011;36320;48.860;2.380;2023-02-28T11:28:35;11.75;;;3.13;;
4208;SDS011;36320;48.860;2.380;2023-02-28T11:31:16;7.40;;;2.45;;
4208;SDS011;36320;48.860;2.380;2023-02-28T11:33:52;7.03;;;2.10;;
4208;SDS011;36320;48.860;2.380;2023-02-28T11:36:21;9.43;;;2.60;;
4208;SDS011;36320;48.860;2.380;2023-02-28T11:39:11;11.35;;;3.53;;
4208;SDS011;36320;48.860;2.380;2023-02-28T11:52:43;9.60;;;2.42;;
4208;SDS011;36320;48.860;2.380;2023-02-28T12:00:50;11.48;;;2.30;;
4208;SDS011;36320;48.860;2.380;2023-02-28T12:09:11;7.45;;;2.05;;
4208;SDS011;36320;48.860;2.380;2023-02-28T12:23:41;7.60;;;2.10;;
4208;SDS011;36320;48.860;2.380;2023-02-28T12:26:19;7.90;;;2.40;;
4208;SDS011;36320;48.860;2.380;2023-02-28T12:28:57;7.43;;;2.22;;
4208;SDS011;36320;48.860;2.380;2023-02-28T12:31:36;8.00;;;2.45;;
4208;SDS011;36320;48.860;2.380;2023-02-28T12:34:09;7.88;;;2.00;;
4208;SDS011;36320;48.860;2.380;2023-02-28T12:36:41;7.30;;;2.20;;
4208;SDS011;36320;48.860;2.380;2023-02-28T12:39:19;7.35;;;1.90;;
4208;SDS011;36320;48.860;2.380;2023-02-28T12:41:59;9.02;;;2.55;;
4208;SDS011;36320;48.860;2.380;2023-02-28T12:44:48;6.70;;;2.03;;
4208;SDS011;36320;48.860;2.380;2023-02-28T12:47:18;7.20;;;1.90;;
4208;SDS011;36320;48.860;2.380;2023-02-28T12:52:56;6.90;;;2.00;;
4208;SDS011;36320;48.860;2.380;2023-02-28T12:55:36;8.90;;;2.00;;
4208;SDS011;36320;48.860;2.380;2023-02-28T13:09:03;7.20;;;1.90;;
4208;SDS011;36320;48.860;2.380;2023-02-28T13:11:41;7.63;;;2.00;;
4208;SDS011;36320;48.860;2.380;2023-02-28T13:19:40;7.95;;;2.08;;
4208;SDS011;36320;48.860;2.380;2023-02-28T13:22:16;9.38;;;2.70;;
4208;SDS011;36320;48.860;2.380;2023-02-28T13:24:49;8.70;;;2.20;;
4208;SDS011;36320;48.860;2.380;2023-02-28T13:27:36;8.90;;;1.90;;
4208;SDS011;36320;48.860;2.380;2023-02-28T13:38:44;9.55;;;2.40;;
4208;SDS011;36320;48.860;2.380;2023-02-28T13:54:50;8.60;;;2.60;;
4208;SDS011;36320;48.860;2.380;2023-02-28T14:00:58;7.60;;;1.90;;
4208;SDS011;36320;48.860;2.380;2023-02-28T14:06:37;7.18;;;1.70;;
4208;SDS011;36320;48.860;2.380;2023-02-28T14:18:26;7.20;;;2.10;;
4208;SDS011;36320;48.860;2.380;2023-02-28T14:21:01;7.20;;;1.90;;
4208;SDS011;36320;48.860;2.380;2023-02-28T14:41:22;12.40;;;2.53;;
4208;SDS011;36320;48.860;2.380;2023-02-28T14:43:57;7.10;;;2.13;;
4208;SDS011;36320;48.860;2.380;2023-02-28T14:46:25;7.00;;;2.30;;
4208;SDS011;36320;48.860;2.380;2023-02-28T14:49:03;6.68;;;2.00;;
4208;SDS011;36320;48.860;2.380;2023-02-28T14:51:33;9.68;;;2.25;;
4208;SDS011;36320;48.860;2.380;2023-02-28T14:54:02;8.85;;;2.20;;
4208;SDS011;36320;48.860;2.380;2023-02-28T14:56:35;7.13;;;2.10;;
4208;SDS011;36320;48.860;2.380;2023-02-28T14:59:03;7.10;;;2.17;;
4208;SDS011;36320;48.860;2.380;2023-02-28T15:01:30;7.70;;;2.25;;
4208;SDS011;36320;48.860;2.380;2023-02-28T15:04:00;10.60;;;2.00;;
4208;SDS011;36320;48.860;2.380;2023-02-28T15:06:31;8.68;;;2.30;;
4208;SDS011;36320;48.860;2.380;2023-02-28T15:09:17;7.72;;;2.30;;
4208;SDS011;36320;48.860;2.380;2023-02-28T15:11:47;8.37;;;2.30;;
4208;SDS011;36320;48.860;2.380;2023-02-28T15:14:18;7.35;;;2.00;;
4208;SDS011;36320;48.860;2.380;2023-02-28T15:16:57;8.07;;;2.00;;
4208;SDS011;36320;48.860;2.380;2023-02-28T15:19:28;6.20;;;1.80;;
4208;SDS011;36320;48.860;2.380;2023-02-28T15:21:59;6.95;;;2.08;;
4208;SDS011;36320;48.860;2.380;2023-02-28T15:24:35;7.63;;;2.00;;
4208;SDS011;36320;48.860;2.380;2023-02-28T15:27:12;7.20;;;2.10;;
4208;SDS011;36320;48.860;2.380;2023-02-28T15:29:48;8.23;;;2.20;;
4208;SDS011;36320;48.860;2.380;2023-02-28T15:32:36;8.30;;;2.28;;
4208;SDS011;36320;48.860;2.380;2023-02-28T15:38:13;6.93;;;2.00;;
4208;SDS011;36320;48.860;2.380;2023-02-28T15:40:44;6.90;;;2.10;;
4208;SDS011;36320;48.860;2.380;2023-02-28T15:43:39;7.40;;;1.80;;
4208;SDS011;36320;48.860;2.380;2023-02-28T15:46:09;7.53;;;2.10;;
4208;SDS011;36320;48.860;2.380;2023-02-28T15:48:54;6.97;;;1.83;;
4208;SDS011;36320;48.860;2.380;2023-02-28T15:51:28;7.38;;;2.10;;
4208;SDS011;36320;48.860;2.380;2023-02-28T15:54:01;10.20;;;2.25;;
4208;SDS011;36320;48.860;2.380;2023-02-28T15:56:33;7.03;;;2.08;;
4208;SDS011;36320;48.860;2.380;2023-02-28T15:59:08;6.40;;;1.80;;
4208;SDS011;36320;48.860;2.380;2023-02-28T16:01:43;7.07;;;2.10;;
4208;SDS011;36320;48.860;2.380;2023-02-28T16:04:16;11.77;;;2.00;;
4208;SDS011;36320;48.860;2.380;2023-02-28T16:07:03;6.32;;;1.63;;
4208;SDS011;36320;48.860;2.380;2023-02-28T16:09:37;10.23;;;2.40;;
4208;SDS011;36320;48.860;2.380;2023-02-28T16:12:08;7.80;;;1.90;;
4208;SDS011;36320;48.860;2.380;2023-02-28T16:14:38;8.77;;;2.00;;
4208;SDS011;36320;48.860;2.380;2023-02-28T16:17:06;9.45;;;3.10;;
4208;SDS011;36320;48.860;2.380;2023-02-28T16:19:42;7.65;;;2.28;;
4208;SDS011;36320;48.860;2.380;2023-02-28T16:22:08;7.90;;;2.20;;
4208;SDS011;36320;48.860;2.380;2023-02-28T16:24:34;7.78;;;2.17;;
4208;SDS011;36320;48.860;2.380;2023-02-28T16:27:01;8.18;;;2.00;;
4208;SDS011;36320;48.860;2.380;2023-02-28T16:29:29;8.80;;;1.90;;
4208;SDS011;36320;48.860;2.380;2023-02-28T16:32:03;9.60;;;2.60;;
4208;SDS011;36320;48.860;2.380;2023-02-28T16:34:31;19.60;;;3.50;;
4208;SDS011;36320;48.860;2.380;2023-02-28T16:36:57;8.88;;;2.00;;
4208;SDS011;36320;48.860;2.380;2023-02-28T16:39:23;7.90;;;2.30;;
4208;SDS011;36320;48.860;2.380;2023-02-28T16:41:49;7.40;;;2.30;;
4208;SDS011;36320;48.860;2.380;2023-02-28T16:44:33;7.55;;;2.03;;
4208;SDS011;36320;48.860;2.380;2023-02-28T16:47:10;8.75;;;2.15;;
4208;SDS011;36320;48.860;2.380;2023-02-28T16:49:40;7.80;;;2.47;;
4208;SDS011;36320;48.860;2.380;2023-02-28T16:52:08;11.10;;;1.60;;
4208;SDS011;36320;48.860;2.380;2023-02-28T16:54:38;7.57;;;2.30;;
4208;SDS011;36320;48.860;2.380;2023-02-28T16:57:07;6.40;;;1.90;;
4208;SDS011;36320;48.860;2.380;2023-02-28T16:59:47;10.73;;;3.10;;
4208;SDS011;36320;48.860;2.380;2023-02-28T17:02:16;7.50;;;2.10;;
4208;SDS011;36320;48.860;2.380;2023-02-28T17:04:47;7.57;;;1.95;;
4208;SDS011;36320;48.860;2.380;2023-02-28T17:07:13;7.10;;;2.10;;
4208;SDS011;36320;48.860;2.380;2023-02-28T17:09:52;7.95;;;2.20;;
4208;SDS011;36320;48.860;2.380;2023-02-28T17:12:18;9.60;;;2.50;;
4208;SDS011;36320;48.860;2.380;2023-02-28T17:14:46;7.25;;;2.10;;
4208;SDS011;36320;48.860;2.380;2023-02-28T17:17:18;8.32;;;2.00;;
4208;SDS011;36320;48.860;2.380;2023-02-28T17:19:48;8.10;;;2.33;;
4208;SDS011;36320;48.860;2.380;2023-02-28T17:22:14;6.32;;;1.70;;
4208;SDS011;36320;48.860;2.380;2023-02-28T17:24:43;6.93;;;2.10;;
4208;SDS011;36320;48.860;2.380;2023-02-28T17:27:13;7.65;;;2.40;;
4208;SDS011;36320;48.860;2.380;2023-02-28T17:29:40;8.20;;;2.38;;
4208;SDS011;36320;48.860;2.380;2023-02-28T17:32:06;7.80;;;2.65;;
4208;SDS011;36320;48.860;2.380;2023-02-28T17:37:44;7.82;;;2.10;;
4208;SDS011;36320;48.860;2.380;2023-02-28T17:40:14;7.65;;;2.20;;
4208;SDS011;36320;48.860;2.380;2023-02-28T17:45:40;6.50;;;2.00;;
4208;SDS011;36320;48.860;2.380;2023-02-28T17:48:09;7.85;;;2.30;;
4208;SDS011;36320;48.860;2.380;2023-02-28T17:50:37;7.90;;;2.13;;
4208;SDS011;36320;48.860;2.380;2023-02-28T17:53:04;8.70;;;2.38;;
4208;SDS011;36320;48.860;2.380;2023-02-28T17:55:30;8.63;;;2.55;;
4208;SDS011;36320;48.860;2.380;2023-02-28T17:58:01;9.73;;;2.60;;
4208;SDS011;36320;48.860;2.380;2023-02-28T18:00:29;9.20;;;2.47;;
4208;SDS011;36320;48.860;2.380;2023-02-28T18:03:00;6.55;;;1.90;;